Time;durP1;ratioP1;P1;durP2;ratioP2;P2;SDS_P1;SDS_P2;PMS_P1;PMS_P2;Temp;Humidity;BMP_temperature;BMP_pressure;BME280_temperature;BME280_humidity;BME280_pressure;Samples;Min_cycle;Max_cycle;Signal;HPM_P1;HPM_P2
2023/09/04 00:00:41;;;;;;;8.47;7.53;;;;;;;;;;5054979;28;20644;-69
2023/09/04 00:03:07;;;;;;;7.73;6.93;;;;;;;;;;5055329;28;20174;-68
2023/09/04 00:05:34;;;;;;;10.47;8.17;;;;;;;;;;5055304;28;20196;-69
2023/09/04 00:08:00;;;;;;;11.60;8.70;;;;;;;;;;5054876;28;20198;-69
2023/09/04 00:10:26;;;;;;;9.20;7.97;;;;;;;;;;5055144;28;20178;-69
2023/09/04 00:12:52;;;;;;;9.70;8.37;;;;;;;;;;5054785;28;20544;-70
2023/09/04 00:15:18;;;;;;;10.33;7.90;;;;;;;;;;5055280;28;20203;-69
2023/09/04 00:17:48;;;;;;;11.20;8.47;;;;;;;;;;5054736;28;20688;-68
2023/09/04 00:20:14;;;;;;;11.00;8.00;;;;;;;;;;5036935;28;20179;-68
2023/09/04 00:22:40;;;;;;;10.63;8.03;;;;;;;;;;5054859;28;20246;-69
2023/09/04 00:25:06;;;;;;;9.73;8.57;;;;;;;;;;5074555;28;20210;-70
2023/09/04 00:27:32;;;;;;;10.27;7.50;;;;;;;;;;5073753;28;20205;-70
2023/09/04 00:29:58;;;;;;;9.13;8.13;;;;;;;;;;5070832;28;20183;-69
2023/09/04 00:32:23;;;;;;;8.83;7.70;;;;;;;;;;5064442;28;20297;-69
2023/09/04 00:34:49;;;;;;;9.93;8.33;;;;;;;;;;5055646;28;20181;-69
2023/09/04 00:37:15;;;;;;;9.23;7.70;;;;;;;;;;5054660;28;20186;-68
2023/09/04 00:39:41;;;;;;;10.03;7.90;;;;;;;;;;5055153;28;20644;-68
2023/09/04 00:42:10;;;;;;;12.53;7.90;;;;;;;;;;5054324;28;20264;-68
2023/09/04 00:44:36;;;;;;;8.77;7.50;;;;;;;;;;5054687;28;20554;-69
2023/09/04 00:47:02;;;;;;;8.97;7.93;;;;;;;;;;5037482;28;20213;-68
2023/09/04 00:49:29;;;;;;;8.03;7.23;;;;;;;;;;5054837;28;20174;-69
2023/09/04 00:51:56;;;;;;;11.50;8.07;;;;;;;;;;5054100;28;20210;-68
2023/09/04 00:54:22;;;;;;;11.13;8.30;;;;;;;;;;5054531;28;20631;-67
2023/09/04 00:56:51;;;;;;;10.37;8.07;;;;;;;;;;5054036;28;20204;-68
2023/09/04 00:59:17;;;;;;;8.77;7.93;;;;;;;;;;5054173;28;20175;-68
2023/09/04 01:01:43;;;;;;;8.90;8.00;;;;;;;;;;5054096;28;20265;-67
2023/09/04 01:04:09;;;;;;;11.23;8.50;;;;;;;;;;5054372;28;20684;-68
2023/09/04 01:06:35;;;;;;;10.83;8.73;;;;;;;;;;5053037;28;20569;-68
2023/09/04 01:09:01;;;;;;;10.67;9.07;;;;;;;;;;5053978;28;20250;-68
2023/09/04 01:11:33;;;;;;;12.13;9.13;;;;;;;;;;5053854;28;20640;-68
2023/09/04 01:14:00;;;;;;;9.83;8.90;;;;;;;;;;5053672;28;20539;-68
2023/09/04 01:16:26;;;;;;;9.47;8.43;;;;;;;;;;5053482;28;20685;-68
2023/09/04 01:18:52;;;;;;;11.20;8.60;;;;;;;;;;5035709;28;20215;-69
2023/09/04 01:21:18;;;;;;;10.70;9.50;;;;;;;;;;5035656;28;20186;-68
2023/09/04 01:23:44;;;;;;;11.87;9.03;;;;;;;;;;5035503;28;20186;-67
2023/09/04 01:26:21;;;;;;;11.90;9.00;;;;;;;;;;5053382;28;20174;-68
2023/09/04 01:28:50;;;;;;;11.80;10.57;;;;;;;;;;5052549;28;20378;-68
2023/09/04 01:31:19;;;;;;;10.67;9.57;;;;;;;;;;5053816;28;20193;-68
2023/09/04 01:33:56;;;;;;;11.17;9.97;;;;;;;;;;5053292;28;20206;-67
2023/09/04 01:36:23;;;;;;;12.60;9.80;;;;;;;;;;5035303;28;20713;-68
2023/09/04 01:38:50;;;;;;;10.83;9.43;;;;;;;;;;5053461;28;20521;-68
2023/09/04 01:41:16;;;;;;;12.53;8.83;;;;;;;;;;5053224;28;20190;-68
2023/09/04 01:43:41;;;;;;;12.60;9.57;;;;;;;;;;5035236;28;20182;-67
2023/09/04 01:46:08;;;;;;;12.93;9.00;;;;;;;;;;5053108;28;20189;-68
2023/09/04 01:48:35;;;;;;;10.03;9.03;;;;;;;;;;5053524;28;20179;-67
2023/09/04 01:51:01;;;;;;;12.07;9.13;;;;;;;;;;5053047;28;20175;-68
2023/09/04 01:53:27;;;;;;;13.37;9.13;;;;;;;;;;5052988;28;20212;-67
2023/09/04 01:55:53;;;;;;;9.87;8.67;;;;;;;;;;5035018;28;20175;-67
2023/09/04 01:58:19;;;;;;;11.03;9.07;;;;;;;;;;5053559;28;20594;-67
2023/09/04 02:00:46;;;;;;;11.00;9.53;;;;;;;;;;5053790;28;20536;-68
2023/09/04 02:03:12;;;;;;;15.23;10.00;;;;;;;;;;5063955;28;20162;-68
2023/09/04 02:05:39;;;;;;;9.50;8.43;;;;;;;;;;5053286;28;20175;-68
2023/09/04 02:08:07;;;;;;;10.07;8.40;;;;;;;;;;5070898;28;20218;-67
2023/09/04 02:10:33;;;;;;;13.40;8.73;;;;;;;;;;5071668;28;20170;-68
2023/09/04 02:12:59;;;;;;;12.63;8.67;;;;;;;;;;5072386;28;20202;-67
2023/09/04 02:15:25;;;;;;;13.13;9.23;;;;;;;;;;5071087;28;20201;-67
2023/09/04 02:17:52;;;;;;;12.10;9.07;;;;;;;;;;5055236;28;20201;-67
2023/09/04 02:20:18;;;;;;;10.33;9.33;;;;;;;;;;5060934;28;20178;-68
2023/09/04 02:22:44;;;;;;;12.13;10.10;;;;;;;;;;5041401;28;20189;-68
2023/09/04 02:25:10;;;;;;;13.50;10.27;;;;;;;;;;5041853;28;20532;-68
2023/09/04 02:27:36;;;;;;;11.27;9.90;;;;;;;;;;5041648;28;20213;-68
2023/09/04 02:30:07;;;;;;;12.03;9.80;;;;;;;;;;5058045;28;20174;-68
2023/09/04 02:32:33;;;;;;;10.27;9.27;;;;;;;;;;5039336;28;20202;-68
2023/09/04 02:34:59;;;;;;;10.47;8.93;;;;;;;;;;5039316;28;20185;-68
2023/09/04 02:37:25;;;;;;;10.40;8.63;;;;;;;;;;5056514;28;20281;-68
2023/09/04 02:39:51;;;;;;;10.57;9.47;;;;;;;;;;5056797;28;20171;-67
2023/09/04 02:42:17;;;;;;;12.63;9.30;;;;;;;;;;5056981;28;20189;-68
2023/09/04 02:44:43;;;;;;;13.93;9.43;;;;;;;;;;5056766;28;20178;-68
2023/09/04 02:47:09;;;;;;;11.67;9.90;;;;;;;;;;5056681;28;20263;-67
2023/09/04 02:49:35;;;;;;;13.87;9.53;;;;;;;;;;5038607;28;20274;-68
2023/09/04 02:52:01;;;;;;;9.60;8.60;;;;;;;;;;5056629;28;20660;-67
2023/09/04 02:54:27;;;;;;;9.70;8.77;;;;;;;;;;5056722;28;20174;-68
2023/09/04 02:56:53;;;;;;;13.47;9.40;;;;;;;;;;5056655;28;20201;-68
2023/09/04 02:59:19;;;;;;;9.57;8.57;;;;;;;;;;5056245;28;20175;-68
2023/09/04 03:01:45;;;;;;;10.50;9.43;;;;;;;;;;5056630;28;20261;-68
2023/09/04 03:04:11;;;;;;;10.80;8.73;;;;;;;;;;5038741;28;20178;-68
2023/09/04 03:06:38;;;;;;;13.13;9.20;;;;;;;;;;5055991;28;20198;-67
2023/09/04 03:09:04;;;;;;;13.50;9.03;;;;;;;;;;5056360;28;20257;-68
2023/09/04 03:11:31;;;;;;;10.70;9.60;;;;;;;;;;5055974;28;20175;-68
2023/09/04 03:13:56;;;;;;;10.23;7.83;;;;;;;;;;5056156;28;20273;-69
2023/09/04 03:16:22;;;;;;;9.57;8.57;;;;;;;;;;5056027;28;20198;-68
2023/09/04 03:18:48;;;;;;;10.43;8.57;;;;;;;;;;5055999;28;20178;-67
2023/09/04 03:21:14;;;;;;;11.53;8.60;;;;;;;;;;5056074;28;20174;-67
2023/09/04 03:23:40;;;;;;;9.83;8.83;;;;;;;;;;5055782;28;20178;-68
2023/09/04 03:26:06;;;;;;;10.57;9.43;;;;;;;;;;5037729;28;20648;-68
2023/09/04 03:28:33;;;;;;;11.30;9.03;;;;;;;;;;5055453;28;20174;-68
2023/09/04 03:30:59;;;;;;;12.27;10.40;;;;;;;;;;5037233;28;20193;-67
2023/09/04 03:33:25;;;;;;;16.07;10.33;;;;;;;;;;5055860;28;20206;-67
2023/09/04 03:35:52;;;;;;;12.27;9.73;;;;;;;;;;5055785;28;20203;-68
2023/09/04 03:38:19;;;;;;;11.30;9.90;;;;;;;;;;5055445;28;20230;-68
2023/09/04 03:40:46;;;;;;;11.80;9.50;;;;;;;;;;5055561;28;20166;-67
2023/09/04 03:43:12;;;;;;;14.03;10.30;;;;;;;;;;5038137;28;20183;-70
2023/09/04 03:45:38;;;;;;;17.40;10.27;;;;;;;;;;5055185;28;20252;-69
2023/09/04 03:48:04;;;;;;;11.10;9.97;;;;;;;;;;5041721;28;20214;-68
2023/09/04 03:50:30;;;;;;;15.17;10.67;;;;;;;;;;5073969;28;20209;-70
2023/09/04 03:52:56;;;;;;;14.43;10.70;;;;;;;;;;5055458;28;20202;-70
2023/09/04 03:55:22;;;;;;;13.03;9.43;;;;;;;;;;5067369;28;20180;-70
2023/09/04 03:57:51;;;;;;;14.70;10.47;;;;;;;;;;5057194;28;20190;-69
2023/09/04 04:00:17;;;;;;;11.43;10.27;;;;;;;;;;5038078;28;20269;-68
2023/09/04 04:02:43;;;;;;;13.00;10.90;;;;;;;;;;5055791;28;20178;-69
2023/09/04 04:05:11;;;;;;;15.17;11.90;;;;;;;;;;5037444;28;20221;-69
2023/09/04 04:07:37;;;;;;;14.30;10.70;;;;;;;;;;5036981;28;20202;-69
2023/09/04 04:10:04;;;;;;;15.77;11.30;;;;;;;;;;5037027;28;20269;-69
2023/09/04 04:12:33;;;;;;;12.43;11.13;;;;;;;;;;5054574;28;20202;-69
2023/09/04 04:15:03;;;;;;;13.10;11.23;;;;;;;;;;5054850;28;20194;-68
2023/09/04 04:17:29;;;;;;;14.03;10.23;;;;;;;;;;5055039;28;20186;-69
2023/09/04 04:19:56;;;;;;;11.50;10.30;;;;;;;;;;5036870;28;20183;-68
2023/09/04 04:22:23;;;;;;;12.20;10.90;;;;;;;;;;5054752;28;20174;-69
2023/09/04 04:24:49;;;;;;;15.03;11.40;;;;;;;;;;5054500;28;20214;-69
2023/09/04 04:27:17;;;;;;;12.97;11.57;;;;;;;;;;5054417;28;20198;-69
2023/09/04 04:29:49;;;;;;;13.37;10.70;;;;;;;;;;5036490;28;20671;-69
2023/09/04 04:32:15;;;;;;;14.93;12.27;;;;;;;;;;5054282;28;20298;-68
2023/09/04 04:34:41;;;;;;;14.90;11.83;;;;;;;;;;5036194;28;20182;-68
2023/09/04 04:37:08;;;;;;;13.07;11.67;;;;;;;;;;5054151;28;20209;-67
2023/09/04 04:39:33;;;;;;;15.40;12.10;;;;;;;;;;5036272;28;20179;-69
2023/09/04 04:41:59;;;;;;;14.50;10.97;;;;;;;;;;5054668;28;20237;-69
2023/09/04 04:44:26;;;;;;;11.77;10.33;;;;;;;;;;5054989;28;20228;-70
2023/09/04 04:46:52;;;;;;;15.83;10.70;;;;;;;;;;5053881;28;20213;-70
2023/09/04 04:49:20;;;;;;;13.47;11.43;;;;;;;;;;5054001;28;20186;-70
2023/09/04 04:51:46;;;;;;;13.40;11.23;;;;;;;;;;5054267;28;20201;-69
2023/09/04 04:54:12;;;;;;;15.23;11.00;;;;;;;;;;5035992;28;20688;-69
2023/09/04 04:56:39;;;;;;;13.73;11.93;;;;;;;;;;5053848;28;20273;-68
2023/09/04 04:59:05;;;;;;;15.50;12.20;;;;;;;;;;5054028;28;20166;-69
2023/09/04 05:01:31;;;;;;;18.20;14.03;;;;;;;;;;5053875;28;20174;-69
2023/09/04 05:03:57;;;;;;;15.00;12.43;;;;;;;;;;5054067;28;20193;-69
2023/09/04 05:06:23;;;;;;;14.37;11.80;;;;;;;;;;5053746;28;20285;-69
2023/09/04 05:08:50;;;;;;;13.53;11.53;;;;;;;;;;5053610;28;20193;-68
2023/09/04 05:11:16;;;;;;;15.30;11.23;;;;;;;;;;5035783;28;20186;-68
2023/09/04 05:13:42;;;;;;;14.47;12.40;;;;;;;;;;5053507;28;20255;-69
2023/09/04 05:16:08;;;;;;;13.67;12.27;;;;;;;;;;5035885;28;20184;-69
2023/09/04 05:18:34;;;;;;;17.80;13.10;;;;;;;;;;5035672;28;20323;-69
2023/09/04 05:21:00;;;;;;;24.07;13.47;;;;;;;;;;5053625;28;20181;-69
2023/09/04 05:23:26;;;;;;;23.40;13.77;;;;;;;;;;5053990;28;20171;-70
2023/09/04 05:25:53;;;;;;;16.60;12.80;;;;;;;;;;5035454;28;20182;-69
2023/09/04 05:28:19;;;;;;;14.13;12.37;;;;;;;;;;5053447;28;20198;-69
2023/09/04 05:30:45;;;;;;;15.40;12.57;;;;;;;;;;5035811;28;20178;-69
2023/09/04 05:33:11;;;;;;;24.37;13.53;;;;;;;;;;5053281;28;20206;-69
2023/09/04 05:35:37;;;;;;;17.90;12.80;;;;;;;;;;5035663;28;20667;-69
2023/09/04 05:38:03;;;;;;;18.77;11.83;;;;;;;;;;5053160;28;20205;-69
2023/09/04 05:40:29;;;;;;;20.40;12.00;;;;;;;;;;5053314;28;20652;-69
2023/09/04 05:42:57;;;;;;;19.03;12.30;;;;;;;;;;5053594;28;20186;-68
2023/09/04 05:45:23;;;;;;;19.90;12.53;;;;;;;;;;5053099;28;20182;-67
2023/09/04 05:47:49;;;;;;;20.07;12.00;;;;;;;;;;5053374;28;20736;-68
2023/09/04 05:50:15;;;;;;;15.37;11.43;;;;;;;;;;5053266;28;20197;-68
2023/09/04 05:52:41;;;;;;;16.50;11.27;;;;;;;;;;5053110;28;20198;-68
2023/09/04 05:55:07;;;;;;;17.73;11.50;;;;;;;;;;5053070;28;20592;-69
2023/09/04 05:57:34;;;;;;;15.50;11.00;;;;;;;;;;5052931;28;20278;-69
2023/09/04 06:00:00;;;;;;;15.07;9.90;;;;;;;;;;5053728;28;20200;-68
2023/09/04 06:02:27;;;;;;;14.13;10.97;;;;;;;;;;5053205;28;20648;-69
2023/09/04 06:04:53;;;;;;;19.13;10.17;;;;;;;;;;5053034;28;20254;-69
2023/09/04 06:07:19;;;;;;;13.27;11.07;;;;;;;;;;5053893;28;20236;-68
2023/09/04 06:09:45;;;;;;;22.20;11.60;;;;;;;;;;5053133;28;20185;-69
2023/09/04 06:12:12;;;;;;;17.30;11.37;;;;;;;;;;5053044;28;20191;-69
2023/09/04 06:14:38;;;;;;;14.50;11.03;;;;;;;;;;5053658;28;20202;-69
2023/09/04 06:17:04;;;;;;;17.57;10.97;;;;;;;;;;5053374;28;20190;-68
2023/09/04 06:19:30;;;;;;;17.10;10.90;;;;;;;;;;5053639;28;20181;-69
2023/09/04 06:21:56;;;;;;;16.37;11.80;;;;;;;;;;5053501;28;20240;-68
2023/09/04 06:24:22;;;;;;;14.63;11.33;;;;;;;;;;5053365;28;20174;-68
2023/09/04 06:26:48;;;;;;;15.10;9.73;;;;;;;;;;5053787;28;20245;-69
2023/09/04 06:29:17;;;;;;;14.67;10.23;;;;;;;;;;5035593;28;20273;-69
2023/09/04 06:31:43;;;;;;;15.23;9.23;;;;;;;;;;5052781;28;20221;-68
2023/09/04 06:34:09;;;;;;;17.23;10.30;;;;;;;;;;5053368;28;20198;-69
2023/09/04 06:36:35;;;;;;;14.37;9.33;;;;;;;;;;5052581;28;20273;-68
2023/09/04 06:39:04;;;;;;;13.87;9.20;;;;;;;;;;5052879;28;20257;-69
2023/09/04 06:41:30;;;;;;;12.27;9.20;;;;;;;;;;5053347;28;20166;-68
2023/09/04 06:43:56;;;;;;;12.97;9.13;;;;;;;;;;5052751;28;20174;-69
2023/09/04 06:46:22;;;;;;;9.73;8.37;;;;;;;;;;5052562;28;20748;-68
2023/09/04 06:48:48;;;;;;;11.07;9.17;;;;;;;;;;5053005;28;20618;-69
2023/09/04 06:51:15;;;;;;;14.20;8.77;;;;;;;;;;5052816;28;20183;-69
2023/09/04 06:53:41;;;;;;;11.93;8.90;;;;;;;;;;5034811;28;20202;-68
2023/09/04 06:56:07;;;;;;;14.77;9.37;;;;;;;;;;5052429;28;20174;-70
2023/09/04 06:58:33;;;;;;;17.57;9.07;;;;;;;;;;5052988;28;20182;-67
2023/09/04 07:01:02;;;;;;;12.83;8.87;;;;;;;;;;5035331;28;20217;-69
2023/09/04 07:03:28;;;;;;;15.20;8.83;;;;;;;;;;5034673;28;20190;-68
2023/09/04 07:05:54;;;;;;;12.03;8.77;;;;;;;;;;5055912;28;20253;-69
2023/09/04 07:08:20;;;;;;;16.10;9.43;;;;;;;;;;5056312;28;20283;-68
2023/09/04 07:10:47;;;;;;;19.37;9.57;;;;;;;;;;5038590;28;20197;-68
2023/09/04 07:13:14;;;;;;;20.73;9.20;;;;;;;;;;5056182;28;20206;-69
2023/09/04 07:15:40;;;;;;;17.60;9.37;;;;;;;;;;5056713;28;20170;-69
2023/09/04 07:18:08;;;;;;;16.57;9.80;;;;;;;;;;5038704;28;20203;-67
2023/09/04 07:20:34;;;;;;;15.97;9.37;;;;;;;;;;5070273;28;20234;-68
2023/09/04 07:23:00;;;;;;;16.00;9.23;;;;;;;;;;5076826;28;20162;-68
2023/09/04 07:25:26;;;;;;;19.83;9.27;;;;;;;;;;5075202;28;20265;-69
2023/09/04 07:27:52;;;;;;;18.53;8.23;;;;;;;;;;5045842;28;20213;-69
2023/09/04 07:30:18;;;;;;;17.03;8.27;;;;;;;;;;5059483;28;20652;-69
2023/09/04 07:32:44;;;;;;;11.90;8.43;;;;;;;;;;5059498;28;20234;-68
2023/09/04 07:35:10;;;;;;;24.43;9.20;;;;;;;;;;5058225;28;20170;-68
2023/09/04 07:37:36;;;;;;;14.70;8.80;;;;;;;;;;5057492;28;20222;-69
2023/09/04 07:40:05;;;;;;;12.80;7.30;;;;;;;;;;5056706;28;20197;-69
2023/09/04 07:42:31;;;;;;;14.67;6.67;;;;;;;;;;5056021;28;20190;-68
2023/09/04 07:44:57;;;;;;;12.07;6.60;;;;;;;;;;5056792;28;20185;-70
2023/09/04 07:47:23;;;;;;;14.30;6.57;;;;;;;;;;5057686;28;20222;-69
2023/09/04 07:49:53;;;;;;;15.27;7.10;;;;;;;;;;5039550;28;20186;-68
2023/09/04 07:52:19;;;;;;;11.13;7.13;;;;;;;;;;5056321;28;20205;-68
2023/09/04 07:54:47;;;;;;;12.80;5.90;;;;;;;;;;5055801;28;20175;-69
2023/09/04 07:57:13;;;;;;;15.53;6.03;;;;;;;;;;5040330;28;20217;-69
2023/09/04 07:59:40;;;;;;;13.90;6.37;;;;;;;;;;5057022;28;20178;-69
2023/09/04 08:02:06;;;;;;;9.23;6.50;;;;;;;;;;5057436;28;20206;-68
2023/09/04 08:04:32;;;;;;;9.93;5.83;;;;;;;;;;5055962;28;20186;-69
2023/09/04 08:06:58;;;;;;;11.77;5.47;;;;;;;;;;5038132;28;20201;-69
2023/09/04 08:09:24;;;;;;;11.40;5.50;;;;;;;;;;5037693;28;20174;-70
2023/09/04 08:11:50;;;;;;;7.27;5.70;;;;;;;;;;5055543;28;20171;-68
2023/09/04 08:14:16;;;;;;;16.60;6.83;;;;;;;;;;5055640;28;20203;-68
2023/09/04 08:16:42;;;;;;;10.67;5.50;;;;;;;;;;5054934;28;20339;-68
2023/09/04 08:19:08;;;;;;;7.53;5.20;;;;;;;;;;5056315;28;20193;-70
2023/09/04 08:21:34;;;;;;;14.23;5.70;;;;;;;;;;5056784;28;20171;-69
2023/09/04 08:24:00;;;;;;;9.03;5.63;;;;;;;;;;5056401;28;20637;-67
2023/09/04 08:26:26;;;;;;;6.10;5.17;;;;;;;;;;5055217;28;20604;-69
2023/09/04 08:28:52;;;;;;;10.50;5.30;;;;;;;;;;5079607;22;20234;-68
2023/09/04 08:31:18;;;;;;;9.13;4.83;;;;;;;;;;5055280;28;20520;-67
2023/09/04 08:33:44;;;;;;;10.00;5.33;;;;;;;;;;5054721;28;20285;-68
2023/09/04 08:36:10;;;;;;;6.40;4.93;;;;;;;;;;5055278;28;20592;-68
2023/09/04 08:38:36;;;;;;;12.23;5.03;;;;;;;;;;5054474;28;20175;-68
2023/09/04 08:41:05;;;;;;;7.37;5.27;;;;;;;;;;5054441;28;20664;-68
2023/09/04 08:43:32;;;;;;;9.90;5.23;;;;;;;;;;5054379;28;20193;-69
2023/09/04 08:46:02;;;;;;;11.03;4.97;;;;;;;;;;5054529;28;20182;-68
2023/09/04 08:48:30;;;;;;;5.53;4.77;;;;;;;;;;5054821;28;20610;-69
2023/09/04 08:50:56;;;;;;;5.93;4.67;;;;;;;;;;5054094;28;20769;-68
2023/09/04 08:53:23;;;;;;;10.93;5.10;;;;;;;;;;5054306;28;20229;-69
2023/09/04 08:55:50;;;;;;;7.53;4.73;;;;;;;;;;5054065;28;20277;-68
2023/09/04 08:58:16;;;;;;;10.93;5.17;;;;;;;;;;5036094;28;20186;-70
2023/09/04 09:00:43;;;;;;;10.90;5.17;;;;;;;;;;5053919;28;20671;-68
2023/09/04 09:03:10;;;;;;;10.77;5.57;;;;;;;;;;5054125;28;20178;-69
2023/09/04 09:05:36;;;;;;;6.57;4.60;;;;;;;;;;5054085;28;20179;-67
2023/09/04 09:08:02;;;;;;;6.20;4.00;;;;;;;;;;5053699;28;20182;-69
2023/09/04 09:10:29;;;;;;;8.37;5.00;;;;;;;;;;5053713;28;20260;-67
2023/09/04 09:12:55;;;;;;;6.97;4.63;;;;;;;;;;5035710;28;20210;-68
2023/09/04 09:15:21;;;;;;;10.17;4.47;;;;;;;;;;5054296;28;20170;-68
2023/09/04 09:17:54;;;;;;;9.83;4.40;;;;;;;;;;5036224;28;20174;-69
2023/09/04 09:20:36;;;;;;;6.53;4.30;;;;;;;;;;5036342;28;20198;-68
2023/09/04 09:23:05;;;;;;;9.77;4.97;;;;;;;;;;5035779;28;20277;-68
2023/09/04 09:25:31;;;;;;;7.57;4.93;;;;;;;;;;5035628;28;20711;-68
2023/09/04 09:28:04;;;;;;;8.40;4.37;;;;;;;;;;5052894;28;20240;-68
2023/09/04 09:30:40;;;;;;;8.37;4.20;;;;;;;;;;5053442;28;20262;-68
2023/09/04 09:33:17;;;;;;;8.97;5.33;;;;;;;;;;5053308;28;20204;-68
2023/09/04 09:35:44;;;;;;;8.63;4.17;;;;;;;;;;5053665;28;20297;-68
2023/09/04 09:38:10;;;;;;;7.50;4.97;;;;;;;;;;5053406;28;20181;-68
2023/09/04 09:40:37;;;;;;;9.17;4.30;;;;;;;;;;5035212;28;20203;-68
2023/09/04 09:43:03;;;;;;;5.17;4.00;;;;;;;;;;5053285;28;20185;-68
2023/09/04 09:45:32;;;;;;;9.83;4.27;;;;;;;;;;5053480;28;20178;-68
2023/09/04 09:47:58;;;;;;;6.00;4.17;;;;;;;;;;5053202;28;20244;-68
2023/09/04 09:50:25;;;;;;;6.33;3.67;;;;;;;;;;5053124;28;20672;-67
2023/09/04 09:53:01;;;;;;;8.60;4.20;;;;;;;;;;5035174;28;20214;-67
2023/09/04 09:55:28;;;;;;;7.47;4.10;;;;;;;;;;5035245;28;20600;-67
2023/09/04 09:57:56;;;;;;;4.47;3.83;;;;;;;;;;5053047;28;20193;-67
2023/09/04 10:00:22;;;;;;;9.57;3.53;;;;;;;;;;5053021;28;20608;-67
2023/09/04 10:02:48;;;;;;;6.63;3.50;;;;;;;;;;5053270;28;20186;-66
2023/09/04 10:05:14;;;;;;;4.03;3.13;;;;;;;;;;5035245;28;20194;-67
2023/09/04 10:07:40;;;;;;;7.03;3.00;;;;;;;;;;5053265;28;20178;-67
2023/09/04 10:10:07;;;;;;;3.67;3.20;;;;;;;;;;5057317;28;20209;-67
2023/09/04 10:12:43;;;;;;;5.50;3.20;;;;;;;;;;5054890;28;20289;-68
2023/09/04 10:15:10;;;;;;;5.73;3.43;;;;;;;;;;5052916;28;20596;-68
2023/09/04 10:18:09;;;;;;;7.80;5.00;;;;;;;;;;5053013;28;20640;-67
2023/09/04 10:20:36;;;;;;;5.47;3.00;;;;;;;;;;4992999;28;20680;-67
2023/09/04 10:23:12;;;;;;;6.50;3.03;;;;;;;;;;5053161;28;20179;-68
2023/09/04 10:25:45;;;;;;;5.60;3.03;;;;;;;;;;5034763;28;20196;-66
2023/09/04 10:28:16;;;;;;;3.93;2.43;;;;;;;;;;5052724;28;20265;-67
2023/09/04 10:30:42;;;;;;;3.53;2.80;;;;;;;;;;5052822;28;20564;-68
2023/09/04 10:33:09;;;;;;;5.87;3.63;;;;;;;;;;5052681;28;20206;-67
2023/09/04 10:35:35;;;;;;;8.50;3.60;;;;;;;;;;5052883;28;20245;-67
2023/09/04 10:38:01;;;;;;;4.70;3.07;;;;;;;;;;5052857;28;20366;-67
2023/09/04 10:40:31;;;;;;;5.70;2.90;;;;;;;;;;5056631;28;20198;-68
2023/09/04 10:43:03;;;;;;;3.83;3.20;;;;;;;;;;5056841;28;20326;-67
2023/09/04 10:45:29;;;;;;;6.40;3.43;;;;;;;;;;5038914;28;20183;-67
2023/09/04 10:47:55;;;;;;;6.43;3.60;;;;;;;;;;5038557;28;20189;-67
2023/09/04 10:50:27;;;;;;;3.60;2.90;;;;;;;;;;5038556;28;20229;-67
2023/09/04 10:52:54;;;;;;;3.53;2.90;;;;;;;;;;5056433;28;20206;-67
2023/09/04 10:55:20;;;;;;;4.40;3.10;;;;;;;;;;5056440;28;20527;-68
2023/09/04 10:57:59;;;;;;;5.97;3.13;;;;;;;;;;5056870;28;20204;-68
2023/09/04 11:00:29;;;;;;;18.10;4.13;;;;;;;;;;5056188;28;20570;-68
2023/09/04 11:02:55;;;;;;;6.63;3.43;;;;;;;;;;5056517;28;20193;-68
2023/09/04 11:05:21;;;;;;;7.70;4.37;;;;;;;;;;5057419;28;20197;-68
2023/09/04 11:07:47;;;;;;;3.30;2.87;;;;;;;;;;5056375;28;20641;-68
2023/09/04 11:10:18;;;;;;;5.87;3.20;;;;;;;;;;5038191;28;20202;-68
2023/09/04 11:12:45;;;;;;;7.90;4.07;;;;;;;;;;5038108;28;20660;-68
2023/09/04 11:15:12;;;;;;;9.40;3.27;;;;;;;;;;5038329;28;20179;-68
2023/09/04 11:17:39;;;;;;;3.57;2.77;;;;;;;;;;5056329;28;20208;-68
2023/09/04 11:20:06;;;;;;;4.20;2.73;;;;;;;;;;5038346;28;20199;-67
2023/09/04 11:22:33;;;;;;;6.10;3.10;;;;;;;;;;5038149;28;20266;-68
2023/09/04 11:24:59;;;;;;;3.50;3.13;;;;;;;;;;5038020;28;20314;-68
2023/09/04 11:27:26;;;;;;;6.00;3.27;;;;;;;;;;5038087;28;20255;-68
2023/09/04 11:29:52;;;;;;;3.63;2.50;;;;;;;;;;5055622;28;20214;-68
2023/09/04 11:32:19;;;;;;;3.17;2.73;;;;;;;;;;5056121;28;20190;-68
2023/09/04 11:34:45;;;;;;;5.33;2.63;;;;;;;;;;5037857;28;20265;-68
2023/09/04 11:37:12;;;;;;;4.17;3.17;;;;;;;;;;5055461;28;20182;-68
2023/09/04 11:39:53;;;;;;;7.10;3.83;;;;;;;;;;5037562;28;20205;-68
2023/09/04 11:42:21;;;;;;;12.03;3.20;;;;;;;;;;5055613;28;20257;-67
2023/09/04 11:44:48;;;;;;;7.13;3.27;;;;;;;;;;5055482;28;20178;-68
2023/09/04 11:47:14;;;;;;;5.10;3.10;;;;;;;;;;5037475;28;20175;-67
2023/09/04 11:49:40;;;;;;;3.33;2.70;;;;;;;;;;5037013;28;20207;-67
2023/09/04 11:52:06;;;;;;;5.33;2.80;;;;;;;;;;5036983;28;20717;-68
2023/09/04 11:54:36;;;;;;;3.23;2.93;;;;;;;;;;5037271;28;20555;-68
2023/09/04 11:57:03;;;;;;;5.00;3.53;;;;;;;;;;5055610;28;20679;-66
2023/09/04 11:59:33;;;;;;;3.63;2.73;;;;;;;;;;5038401;28;20205;-68
2023/09/04 12:01:59;;;;;;;6.67;3.50;;;;;;;;;;5055413;28;20176;-68
2023/09/04 12:04:26;;;;;;;10.73;5.33;;;;;;;;;;5037418;28;20186;-67
2023/09/04 12:06:52;;;;;;;5.63;4.00;;;;;;;;;;5037299;28;20191;-66
2023/09/04 12:09:17;;;;;;;5.10;3.47;;;;;;;;;;5054893;28;20198;-67
2023/09/04 12:11:43;;;;;;;6.80;3.53;;;;;;;;;;5055087;28;20637;-67
2023/09/04 12:14:10;;;;;;;5.73;2.73;;;;;;;;;;5037028;28;20237;-68
2023/09/04 12:16:36;;;;;;;5.53;2.60;;;;;;;;;;5037023;28;20179;-67
2023/09/04 12:19:04;;;;;;;3.20;2.90;;;;;;;;;;5054813;28;20544;-67
2023/09/04 12:21:30;;;;;;;3.13;2.83;;;;;;;;;;5037256;28;20179;-66
2023/09/04 12:23:58;;;;;;;3.20;2.73;;;;;;;;;;5036958;28;20269;-66
2023/09/04 12:26:24;;;;;;;6.13;3.33;;;;;;;;;;5037867;28;20186;-67
2023/09/04 12:28:52;;;;;;;3.70;3.00;;;;;;;;;;5055200;28;20230;-67
2023/09/04 12:31:23;;;;;;;3.60;2.73;;;;;;;;;;5055528;28;20169;-67
2023/09/04 12:33:51;;;;;;;5.83;3.60;;;;;;;;;;5055140;28;20281;-67
2023/09/04 12:36:20;;;;;;;4.37;3.10;;;;;;;;;;5055403;28;20185;-68
2023/09/04 12:38:47;;;;;;;3.43;3.00;;;;;;;;;;5054635;28;20170;-68
2023/09/04 12:41:13;;;;;;;9.80;6.50;;;;;;;;;;5036706;28;20197;-67
2023/09/04 12:43:39;;;;;;;7.53;4.50;;;;;;;;;;5054650;28;20716;-67
2023/09/04 12:46:05;;;;;;;6.07;3.77;;;;;;;;;;5054476;28;20265;-67
2023/09/04 12:48:31;;;;;;;6.43;2.80;;;;;;;;;;5054486;28;20179;-68
2023/09/04 12:50:57;;;;;;;3.00;2.50;;;;;;;;;;5054087;28;20577;-67
2023/09/04 12:53:23;;;;;;;4.57;3.60;;;;;;;;;;5036308;28;20210;-67
2023/09/04 12:55:49;;;;;;;3.83;3.30;;;;;;;;;;5037870;28;20182;-67
2023/09/04 12:58:16;;;;;;;7.33;3.80;;;;;;;;;;5037530;28;20189;-67
2023/09/04 13:00:42;;;;;;;7.70;4.30;;;;;;;;;;5054201;28;20568;-67
2023/09/04 13:03:08;;;;;;;6.20;4.40;;;;;;;;;;5053580;28;20175;-68
2023/09/04 13:05:34;;;;;;;3.87;2.53;;;;;;;;;;5054643;28;20206;-67
2023/09/04 13:08:00;;;;;;;4.17;2.80;;;;;;;;;;5055466;28;20737;-66
2023/09/04 13:10:26;;;;;;;2.80;2.60;;;;;;;;;;5054528;28;20664;-67
2023/09/04 13:12:52;;;;;;;6.90;6.27;;;;;;;;;;5054874;28;20205;-67
2023/09/04 13:15:18;;;;;;;7.60;6.87;;;;;;;;;;5054267;28;20232;-68
2023/09/04 13:17:44;;;;;;;4.30;3.73;;;;;;;;;;5054262;28;20178;-68
2023/09/04 13:20:11;;;;;;;9.63;6.10;;;;;;;;;;5053940;28;20203;-68
2023/09/04 13:22:37;;;;;;;8.60;3.77;;;;;;;;;;5054169;28;20181;-69
2023/09/04 13:25:03;;;;;;;4.33;3.80;;;;;;;;;;5054170;28;20183;-68
2023/09/04 13:27:29;;;;;;;5.00;2.90;;;;;;;;;;5053973;28;20182;-68
2023/09/04 13:29:57;;;;;;;5.30;3.97;;;;;;;;;;5053541;28;20214;-68
2023/09/04 13:32:23;;;;;;;5.63;3.13;;;;;;;;;;5054205;28;20181;-67
2023/09/04 13:34:49;;;;;;;9.00;5.50;;;;;;;;;;5053680;28;20182;-68
2023/09/04 13:37:15;;;;;;;6.47;2.53;;;;;;;;;;5053392;28;20182;-68
2023/09/04 13:39:41;;;;;;;4.03;2.67;;;;;;;;;;5053627;28;20248;-68
2023/09/04 13:42:07;;;;;;;4.93;2.90;;;;;;;;;;5053696;28;20181;-68
2023/09/04 13:44:33;;;;;;;2.90;2.70;;;;;;;;;;5053657;28;20182;-68
2023/09/04 13:46:59;;;;;;;2.93;2.60;;;;;;;;;;5053299;28;20640;-68
2023/09/04 13:49:25;;;;;;;7.63;3.17;;;;;;;;;;5053100;28;20726;-68
2023/09/04 13:51:51;;;;;;;5.83;2.90;;;;;;;;;;5054096;28;20728;-69
2023/09/04 13:54:17;;;;;;;3.77;2.70;;;;;;;;;;5053844;28;20256;-68
2023/09/04 13:56:43;;;;;;;2.90;2.53;;;;;;;;;;5053363;28;20182;-68
2023/09/04 13:59:09;;;;;;;6.07;4.07;;;;;;;;;;5053199;28;20194;-68
2023/09/04 14:01:35;;;;;;;10.37;3.63;;;;;;;;;;5035260;28;20261;-69
2023/09/04 14:04:03;;;;;;;6.17;3.17;;;;;;;;;;5035067;28;20190;-69
2023/09/04 14:06:29;;;;;;;7.03;4.65;;;;;;;;;;5035350;28;20561;-68
2023/09/04 14:08:55;;;;;;;3.47;3.03;;;;;;;;;;5052968;28;20195;-69
2023/09/04 14:11:21;;;;;;;3.03;2.70;;;;;;;;;;5052913;28;20648;-68
2023/09/04 14:13:47;;;;;;;3.35;3.05;;;;;;;;;;5053143;28;20412;-68
2023/09/04 14:16:13;;;;;;;4.35;3.00;;;;;;;;;;5057685;28;20201;-70
2023/09/04 14:18:39;;;;;;;5.68;3.80;;;;;;;;;;5055785;28;20369;-69
2023/09/04 14:21:06;;;;;;;4.83;3.00;;;;;;;;;;5055682;28;20400;-68
2023/09/04 14:23:32;;;;;;;4.68;3.10;;;;;;;;;;5056335;28;20851;-68
2023/09/04 14:25:58;;;;;;;7.70;4.38;;;;;;;;;;5055827;28;20457;-68
2023/09/04 14:28:24;;;;;;;4.05;3.65;;;;;;;;;;5056980;28;20183;-68
2023/09/04 14:30:50;;;;;;;3.50;2.97;;;;;;;;;;5057056;28;20233;-68